createdAt,value
2019-01-25T00:00:02.961Z,-4.53
2019-01-25T00:01:02.922Z,-4.59
2019-01-25T00:02:03.162Z,-4.53
2019-01-25T00:03:09.782Z,-4.53
2019-01-25T00:04:03.103Z,-4.62
2019-01-25T00:05:02.836Z,-4.55
2019-01-25T00:06:03.061Z,-4.61
2019-01-25T00:07:03.047Z,-4.63
2019-01-25T00:08:03.014Z,-4.59
2019-01-25T00:09:03.004Z,-4.66
2019-01-25T00:10:03.626Z,-4.63
2019-01-25T00:11:02.962Z,-4.57
2019-01-25T00:12:02.683Z,-4.66
2019-01-25T00:13:02.916Z,-4.62
2019-01-25T00:14:05.920Z,-4.68
2019-01-25T00:15:02.870Z,-4.57
2019-01-25T00:16:02.841Z,-4.68
2019-01-25T00:17:02.853Z,-4.59
2019-01-25T00:18:02.802Z,-4.57
2019-01-25T00:19:02.778Z,-4.62
2019-01-25T00:20:02.871Z,-4.63
2019-01-25T00:21:02.733Z,-4.65
2019-01-25T00:22:02.714Z,-4.66
2019-01-25T00:23:02.693Z,-4.73
2019-01-25T00:24:02.866Z,-4.65
2019-01-25T00:25:02.924Z,-4.73
2019-01-25T00:26:02.625Z,-4.73
2019-01-25T00:27:02.613Z,-4.72
2019-01-25T00:28:02.585Z,-4.68
2019-01-25T00:29:02.569Z,-4.72
2019-01-25T00:30:02.601Z,-4.73
2019-01-25T00:31:02.526Z,-4.76
2019-01-25T00:32:02.244Z,-4.72
2019-01-25T00:33:02.481Z,-4.87
2019-01-25T00:34:02.449Z,-4.72
2019-01-25T00:35:02.180Z,-4.82
2019-01-25T00:36:02.409Z,-4.83
2019-01-25T00:37:02.392Z,-4.86
2019-01-25T00:38:02.364Z,-4.89
2019-01-25T00:39:02.092Z,-4.86
2019-01-25T00:40:08.735Z,-4.9
2019-01-25T00:41:02.297Z,-4.86
2019-01-25T00:42:02.273Z,-4.86
2019-01-25T00:43:02.255Z,-4.82
2019-01-25T00:44:01.985Z,-4.82
2019-01-25T00:45:02.208Z,-4.89
2019-01-25T00:46:01.940Z,-4.86
2019-01-25T00:47:02.166Z,-4.86
2019-01-25T00:48:02.152Z,-4.83
2019-01-25T00:49:02.129Z,-4.9
2019-01-25T00:50:01.853Z,-4.84
2019-01-25T00:51:02.084Z,-4.8
2019-01-25T00:52:01.813Z,-4.8
2019-01-25T00:53:02.037Z,-4.89
2019-01-25T00:54:02.013Z,-4.87
2019-01-25T00:55:01.993Z,-4.84
2019-01-25T00:56:01.970Z,-4.89
2019-01-25T00:57:01.946Z,-4.84
2019-01-25T00:58:01.923Z,-4.87
2019-01-25T00:59:01.907Z,-4.83
2019-01-25T01:00:01.892Z,-4.87
2019-01-25T01:01:01.859Z,-4.87
2019-01-25T01:02:01.843Z,-4.75
2019-01-25T01:03:01.566Z,-4.73
2019-01-25T01:04:01.796Z,-4.72
2019-01-25T01:05:01.791Z,-4.75
2019-01-25T01:06:01.751Z,-4.65
2019-01-25T01:07:01.730Z,-4.71
2019-01-25T01:08:01.708Z,-4.62
2019-01-25T01:09:01.681Z,-4.69
2019-01-25T01:10:01.664Z,-4.61
2019-01-25T01:11:01.646Z,-4.59
2019-01-25T01:12:01.619Z,-4.62
2019-01-25T01:13:01.349Z,-4.72
2019-01-25T01:14:01.588Z,-4.59
2019-01-25T01:15:01.556Z,-4.63
2019-01-25T01:16:01.282Z,-4.57
2019-01-25T01:17:01.515Z,-4.61
2019-01-25T01:18:01.243Z,-4.66
2019-01-25T01:19:01.470Z,-4.61
2019-01-25T01:20:01.450Z,-4.65
2019-01-25T01:21:01.419Z,-4.68
2019-01-25T01:22:01.413Z,-4.68
2019-01-25T01:23:01.382Z,-4.63
2019-01-25T01:24:01.366Z,-4.63
2019-01-25T01:25:01.340Z,-4.62
2019-01-25T01:26:01.315Z,-4.59
2019-01-25T01:27:01.293Z,-4.57
2019-01-25T01:28:01.291Z,-4.55
2019-01-25T01:29:01.248Z,-4.61
2019-01-25T01:30:01.232Z,-4.65
2019-01-25T01:31:01.206Z,-4.59
2019-01-25T01:32:01.180Z,-4.59
2019-01-25T01:33:01.159Z,-4.55
2019-01-25T01:34:01.137Z,-4.65
2019-01-25T01:35:00.872Z,-4.65
2019-01-25T01:36:01.094Z,-4.62
2019-01-25T01:37:01.072Z,-4.62
2019-01-25T01:38:01.049Z,-4.59
2019-01-25T01:39:01.027Z,-4.57
2019-01-25T01:40:01.011Z,-4.62
2019-01-25T01:41:00.986Z,-4.62
2019-01-25T01:42:00.969Z,-4.73
2019-01-25T01:43:00.947Z,-4.69
2019-01-25T01:44:00.918Z,-4.69
2019-01-25T01:45:00.691Z,-4.69
2019-01-25T01:46:00.627Z,-4.71
2019-01-25T01:47:00.860Z,-4.68
2019-01-25T01:48:00.841Z,-4.69
2019-01-25T01:49:00.562Z,-4.61
2019-01-25T01:50:00.545Z,-4.65
2019-01-25T01:51:00.772Z,-4.69
2019-01-25T01:52:00.746Z,-4.63
2019-01-25T01:53:00.729Z,-4.63
2019-01-25T01:54:00.706Z,-4.63
2019-01-25T01:55:00.430Z,-4.65
2019-01-25T01:56:00.683Z,-4.55
2019-01-25T01:57:00.637Z,-4.62
2019-01-25T01:58:00.618Z,-4.5
2019-01-25T01:59:00.594Z,-4.62
2019-01-25T02:00:00.326Z,-4.61
2019-01-25T02:01:00.552Z,-4.55
2019-01-25T02:02:00.527Z,-4.62
2019-01-25T02:03:00.507Z,-4.62
2019-01-25T02:04:00.486Z,-4.65
2019-01-25T02:05:00.460Z,-4.53
2019-01-25T02:06:00.442Z,-4.65
2019-01-25T02:07:00.570Z,-4.53
2019-01-25T02:08:00.394Z,-4.55
2019-01-25T02:09:00.377Z,-4.63
2019-01-25T02:10:00.197Z,-4.54
2019-01-25T02:11:00.334Z,-4.63
2019-01-25T02:12:00.467Z,-4.65
2019-01-25T02:13:00.293Z,-4.59
2019-01-25T02:14:00.269Z,-4.65
2019-01-25T02:15:00.248Z,-4.51
2019-01-25T02:16:00.225Z,-4.5
2019-01-25T02:16:59.947Z,-4.59
2019-01-25T02:18:00.177Z,-4.61
2019-01-25T02:19:00.158Z,-4.62
2019-01-25T02:20:00.203Z,-4.5
2019-01-25T02:21:00.119Z,-4.53
2019-01-25T02:22:00.091Z,-4.51
2019-01-25T02:23:00.073Z,-4.55
2019-01-25T02:24:00.049Z,-4.59
2019-01-25T02:25:00.029Z,-4.61
2019-01-25T02:26:00.006Z,-4.54
2019-01-25T02:27:01.380Z,-4.55
2019-01-25T02:27:59.964Z,-4.54
2019-01-25T02:28:59.942Z,-4.54
2019-01-25T02:29:59.919Z,-4.62
2019-01-25T02:30:59.900Z,-4.59
2019-01-25T02:31:59.890Z,-4.54
2019-01-25T02:32:59.868Z,-4.68
2019-01-25T02:34:00.714Z,-4.53
2019-01-25T02:34:59.806Z,-4.65
2019-01-25T02:35:59.790Z,-4.62
2019-01-25T02:36:59.777Z,-4.55
2019-01-25T02:37:59.826Z,-4.62
2019-01-25T02:38:59.719Z,-4.61
2019-01-25T02:39:59.700Z,-4.57
2019-01-25T02:40:59.682Z,-4.66
2019-01-25T02:41:59.664Z,-4.61
2019-01-25T02:42:59.640Z,-4.59
2019-01-25T02:43:59.618Z,-4.59
2019-01-25T02:44:59.597Z,-4.61
2019-01-25T02:45:59.572Z,-4.65
2019-01-25T02:46:59.557Z,-4.63
2019-01-25T02:47:59.683Z,-4.62
2019-01-25T02:48:59.264Z,-4.61
2019-01-25T02:49:59.483Z,-4.63
2019-01-25T02:50:59.464Z,-4.63
2019-01-25T02:51:59.438Z,-4.62
2019-01-25T02:53:06.218Z,-4.62
2019-01-25T02:53:59.392Z,-4.65
2019-01-25T02:54:59.375Z,-4.61
2019-01-25T02:55:59.353Z,-4.63
2019-01-25T02:56:59.336Z,-4.65
2019-01-25T02:57:59.318Z,-4.59
2019-01-25T02:58:59.288Z,-4.71
2019-01-25T02:59:59.023Z,-4.61
2019-01-25T03:00:59.246Z,-4.62
2019-01-25T03:01:59.218Z,-4.57
2019-01-25T03:02:59.200Z,-4.59
2019-01-25T03:03:59.181Z,-4.55
2019-01-25T03:04:59.163Z,-4.57
2019-01-25T03:05:59.151Z,-4.62
2019-01-25T03:06:59.114Z,-4.75
2019-01-25T03:07:59.115Z,-4.63
2019-01-25T03:08:59.070Z,-4.59
2019-01-25T03:09:59.046Z,-4.62
2019-01-25T03:10:59.024Z,-4.61
2019-01-25T03:11:59.004Z,-4.62
2019-01-25T03:12:58.981Z,-4.62
2019-01-25T03:13:59.024Z,-4.66
2019-01-25T03:14:58.935Z,-4.66
2019-01-25T03:15:58.918Z,-4.66
2019-01-25T03:16:58.895Z,-4.59
2019-01-25T03:17:58.878Z,-4.59
2019-01-25T03:18:58.857Z,-4.62
2019-01-25T03:19:58.588Z,-4.62
2019-01-25T03:20:58.808Z,-4.63
2019-01-25T03:21:58.792Z,-4.68
2019-01-25T03:22:58.767Z,-4.63
2019-01-25T03:23:58.740Z,-4.61
2019-01-25T03:24:58.716Z,-4.53
2019-01-25T03:25:58.451Z,-4.65
2019-01-25T03:26:58.434Z,-4.57
2019-01-25T03:27:58.669Z,-4.53
2019-01-25T03:28:58.634Z,-4.54
2019-01-25T03:29:58.615Z,-4.62
2019-01-25T03:30:58.600Z,-4.55
2019-01-25T03:31:58.585Z,-4.62
2019-01-25T03:32:58.633Z,-4.61
2019-01-25T03:33:58.525Z,-4.53
2019-01-25T03:34:58.504Z,-4.65
2019-01-25T03:35:58.499Z,-4.53
2019-01-25T03:36:58.458Z,-4.55
2019-01-25T03:37:58.443Z,-4.63
2019-01-25T03:38:58.418Z,-4.55
2019-01-25T03:39:58.400Z,-4.65
2019-01-25T03:40:59.991Z,-4.75
2019-01-25T03:41:58.354Z,-4.62
2019-01-25T03:42:58.099Z,-4.61
2019-01-25T03:43:58.308Z,-4.71
2019-01-25T03:44:58.288Z,-4.71
2019-01-25T03:45:58.261Z,-4.75
2019-01-25T03:46:58.014Z,-4.79
2019-01-25T03:47:58.321Z,-4.75
2019-01-25T03:48:58.197Z,-4.69
2019-01-25T03:49:58.179Z,-4.73
2019-01-25T03:50:58.152Z,-4.69
2019-01-25T03:51:58.180Z,-4.73
2019-01-25T03:52:58.107Z,-4.63
2019-01-25T03:53:58.089Z,-4.72
2019-01-25T03:54:58.064Z,-4.59
2019-01-25T03:55:58.097Z,-4.66
2019-01-25T03:56:57.774Z,-4.65
2019-01-25T03:57:58.004Z,-4.61
2019-01-25T03:58:57.982Z,-4.63
2019-01-25T03:59:57.954Z,-4.51
2019-01-25T04:00:57.935Z,-4.59
2019-01-25T04:01:57.423Z,-4.65
2019-01-25T04:02:57.897Z,-4.62
2019-01-25T04:03:57.868Z,-4.68
2019-01-25T04:04:57.845Z,-4.62
2019-01-25T04:05:57.595Z,-4.59
2019-01-25T04:06:57.805Z,-4.51
2019-01-25T04:07:57.538Z,-4.63
2019-01-25T04:08:57.765Z,-4.59
2019-01-25T04:09:57.486Z,-4.62
2019-01-25T04:11:05.833Z,-4.63
2019-01-25T04:11:57.450Z,-4.66
2019-01-25T04:12:57.675Z,-4.59
2019-01-25T04:13:57.660Z,-4.61
2019-01-25T04:14:57.630Z,-4.71
2019-01-25T04:15:57.612Z,-4.57
2019-01-25T04:16:57.596Z,-4.59
2019-01-25T04:17:57.585Z,-4.61
2019-01-25T04:18:57.550Z,-4.68
2019-01-25T04:19:57.534Z,-4.69
2019-01-25T04:20:57.497Z,-4.71
2019-01-25T04:21:57.491Z,-4.62
2019-01-25T04:22:57.503Z,-4.71
2019-01-25T04:23:57.429Z,-4.61
2019-01-25T04:24:57.414Z,-4.66
2019-01-25T04:25:57.395Z,-4.65
2019-01-25T04:26:57.366Z,-4.8
2019-01-25T04:27:57.345Z,-4.72
2019-01-25T04:28:57.331Z,-4.69
2019-01-25T04:29:57.305Z,-4.75
2019-01-25T04:30:57.284Z,-4.65
2019-01-25T04:31:57.257Z,-4.63
2019-01-25T04:32:57.237Z,-4.66
2019-01-25T04:33:57.209Z,-4.62
2019-01-25T04:34:57.188Z,-4.68
2019-01-25T04:35:57.171Z,-4.59
2019-01-25T04:36:57.145Z,-4.71
2019-01-25T04:37:57.123Z,-4.61
2019-01-25T04:38:57.102Z,-4.65
2019-01-25T04:39:56.830Z,-4.62
2019-01-25T04:40:57.066Z,-4.69
2019-01-25T04:41:57.050Z,-4.66
2019-01-25T04:42:57.020Z,-4.57
2019-01-25T04:43:56.995Z,-4.59
2019-01-25T04:44:56.973Z,-4.54
2019-01-25T04:45:56.952Z,-4.62
2019-01-25T04:46:56.926Z,-4.59
2019-01-25T04:47:56.908Z,-4.61
2019-01-25T04:48:56.640Z,-4.72
2019-01-25T04:49:56.870Z,-4.66
2019-01-25T04:50:56.597Z,-4.57
2019-01-25T04:51:56.825Z,-4.59
2019-01-25T04:52:56.800Z,-4.57
2019-01-25T04:53:56.785Z,-4.59
2019-01-25T04:54:56.758Z,-4.66
2019-01-25T04:55:56.482Z,-4.59
2019-01-25T04:56:56.714Z,-4.61
2019-01-25T04:57:56.688Z,-4.68
2019-01-25T04:58:56.666Z,-4.63
2019-01-25T04:59:56.650Z,-4.61
2019-01-25T05:00:56.631Z,-4.73
2019-01-25T05:01:57.056Z,-4.72
2019-01-25T05:02:56.579Z,-4.65
2019-01-25T05:03:56.554Z,-4.62
2019-01-25T05:04:56.542Z,-4.75
2019-01-25T05:05:56.523Z,-4.75
2019-01-25T05:06:56.499Z,-4.72
2019-01-25T05:07:56.467Z,-4.75
2019-01-25T05:08:56.705Z,-4.79
2019-01-25T05:09:56.427Z,-4.73
2019-01-25T05:10:55.920Z,-4.63
2019-01-25T05:11:56.376Z,-4.72
2019-01-25T05:12:57.966Z,-4.72
2019-01-25T05:13:56.335Z,-4.72
2019-01-25T05:14:56.315Z,-4.72
2019-01-25T05:15:56.299Z,-4.69
2019-01-25T05:16:56.020Z,-4.73
2019-01-25T05:17:56.250Z,-4.71
2019-01-25T05:18:56.230Z,-4.73
2019-01-25T05:19:56.216Z,-4.65
2019-01-25T05:20:56.189Z,-4.79
2019-01-25T05:21:56.168Z,-4.66
2019-01-25T05:22:55.904Z,-4.63
2019-01-25T05:23:56.115Z,-4.71
2019-01-25T05:24:56.103Z,-4.72
2019-01-25T05:25:56.070Z,-4.61
2019-01-25T05:26:56.052Z,-4.63
2019-01-25T05:27:56.033Z,-4.62
2019-01-25T05:28:55.763Z,-4.62
2019-01-25T05:29:55.986Z,-4.53
2019-01-25T05:30:55.982Z,-4.63
2019-01-25T05:31:55.938Z,-4.66
2019-01-25T05:32:55.921Z,-4.68
2019-01-25T05:33:55.895Z,-4.57
2019-01-25T05:34:55.896Z,-4.55
2019-01-25T05:35:55.875Z,-4.57
2019-01-25T05:36:55.856Z,-4.61
2019-01-25T05:37:55.816Z,-4.61
2019-01-25T05:38:55.546Z,-4.66
2019-01-25T05:39:55.769Z,-4.55
2019-01-25T05:40:55.748Z,-4.59
2019-01-25T05:41:55.726Z,-4.57
2019-01-25T05:42:55.711Z,-4.59
2019-01-25T05:43:55.727Z,-4.53
2019-01-25T05:44:55.660Z,-4.59
2019-01-25T05:45:55.635Z,-4.61
2019-01-25T05:46:55.359Z,-4.62
2019-01-25T05:47:55.592Z,-4.59
2019-01-25T05:48:55.327Z,-4.71
2019-01-25T05:49:55.294Z,-4.63
2019-01-25T05:50:55.288Z,-4.57
2019-01-25T05:51:55.255Z,-4.62
2019-01-25T05:52:55.482Z,-4.59
2019-01-25T05:53:55.469Z,-4.63
2019-01-25T05:54:55.436Z,-4.63
2019-01-25T05:55:55.175Z,-4.62
2019-01-25T05:56:54.904Z,-4.66
2019-01-25T05:57:55.377Z,-4.63
2019-01-25T05:58:55.351Z,-4.54
2019-01-25T05:59:55.327Z,-4.65
2019-01-25T06:00:55.306Z,-4.61
2019-01-25T06:01:55.289Z,-4.62
2019-01-25T06:02:55.266Z,-4.65
2019-01-25T06:03:55.001Z,-4.71
2019-01-25T06:04:54.974Z,-4.65
2019-01-25T06:05:55.203Z,-4.66
2019-01-25T06:06:55.178Z,-4.61
2019-01-25T06:07:55.159Z,-4.71
2019-01-25T06:08:55.135Z,-4.69
2019-01-25T06:09:55.113Z,-4.63
2019-01-25T06:10:55.097Z,-4.57
2019-01-25T06:11:55.066Z,-4.63
2019-01-25T06:12:54.960Z,-4.65
2019-01-25T06:13:55.022Z,-4.62
2019-01-25T06:14:55.002Z,-4.63
2019-01-25T06:15:54.977Z,-4.62
2019-01-25T06:16:54.959Z,-4.66
2019-01-25T06:17:54.935Z,-4.59
2019-01-25T06:18:54.920Z,-4.61
2019-01-25T06:19:54.900Z,-4.57
2019-01-25T06:20:54.887Z,-4.57
2019-01-25T06:21:54.847Z,-4.59
2019-01-25T06:22:54.824Z,-4.61
2019-01-25T06:23:54.811Z,-4.57
2019-01-25T06:24:54.787Z,-4.62
2019-01-25T06:25:54.757Z,-4.61
2019-01-25T06:26:54.737Z,-4.73
2019-01-25T06:27:54.721Z,-4.61
2019-01-25T06:28:54.691Z,-4.69
2019-01-25T06:29:54.420Z,-4.61
2019-01-25T06:30:54.654Z,-4.59
2019-01-25T06:31:54.633Z,-4.68
2019-01-25T06:32:54.386Z,-4.69
2019-01-25T06:33:54.586Z,-4.57
2019-01-25T06:34:54.619Z,-4.63
2019-01-25T06:35:54.544Z,-4.65
2019-01-25T06:36:54.523Z,-4.66
2019-01-25T06:37:54.500Z,-4.65
2019-01-25T06:38:54.227Z,-4.66
2019-01-25T06:39:54.456Z,-4.65
2019-01-25T06:40:53.932Z,-4.63
2019-01-25T06:41:54.411Z,-4.61
2019-01-25T06:42:54.148Z,-4.59
2019-01-25T06:43:54.119Z,-4.63
2019-01-25T06:44:54.094Z,-4.65
2019-01-25T06:45:54.751Z,-4.62
2019-01-25T06:46:54.300Z,-4.62
2019-01-25T06:47:54.031Z,-4.65
2019-01-25T06:48:54.257Z,-4.68
2019-01-25T06:49:54.235Z,-4.59
2019-01-25T06:50:54.210Z,-4.5
2019-01-25T06:51:53.939Z,-4.55
2019-01-25T06:52:54.186Z,-4.57
2019-01-25T06:53:54.143Z,-4.53
2019-01-25T06:54:54.124Z,-4.53
2019-01-25T06:55:54.101Z,-4.55
2019-01-25T06:56:54.082Z,-4.59
2019-01-25T06:57:54.060Z,-4.62
2019-01-25T06:58:54.041Z,-4.62
2019-01-25T06:59:53.768Z,-4.66
2019-01-25T07:00:54.003Z,-4.57
2019-01-25T07:01:53.966Z,-4.62
2019-01-25T07:02:53.950Z,-4.61
2019-01-25T07:03:53.931Z,-4.62
2019-01-25T07:04:53.910Z,-4.61
2019-01-25T07:05:53.880Z,-4.54
2019-01-25T07:06:53.869Z,-4.55
2019-01-25T07:07:53.840Z,-4.55
2019-01-25T07:08:53.828Z,-4.59
2019-01-25T07:09:53.800Z,-4.59
2019-01-25T07:10:53.525Z,-4.54
2019-01-25T07:11:56.502Z,-4.51
2019-01-25T07:12:53.733Z,-4.53
2019-01-25T07:13:53.709Z,-4.55
2019-01-25T07:14:53.688Z,-4.53
2019-01-25T07:15:53.666Z,-4.5
2019-01-25T07:16:53.646Z,-4.45
2019-01-25T07:17:53.373Z,-4.47
2019-01-25T07:18:53.610Z,-4.44
2019-01-25T07:19:53.576Z,-4.47
2019-01-25T07:20:53.559Z,-4.47
2019-01-25T07:21:53.535Z,-4.47
2019-01-25T07:22:53.510Z,-4.5
2019-01-25T07:23:53.493Z,-4.47
2019-01-25T07:24:59.645Z,-4.44
2019-01-25T07:25:53.448Z,-4.39
2019-01-25T07:26:53.187Z,-4.44
2019-01-25T07:27:53.403Z,-4.36
2019-01-25T07:28:53.381Z,-4.36
2019-01-25T07:29:53.423Z,-4.36
2019-01-25T07:30:53.345Z,-4.32
2019-01-25T07:31:53.392Z,-4.33
2019-01-25T07:32:53.329Z,-4.37
2019-01-25T07:33:53.289Z,-4.27
2019-01-25T07:34:53.315Z,-4.3
2019-01-25T07:35:53.240Z,-4.29
2019-01-25T07:36:54.507Z,-4.34
2019-01-25T07:37:52.950Z,-4.33
2019-01-25T07:38:52.745Z,-4.23
2019-01-25T07:39:53.208Z,-4.25
2019-01-25T07:40:53.137Z,-4.26
2019-01-25T07:41:59.111Z,-4.22
2019-01-25T07:42:52.908Z,-4.25
2019-01-25T07:43:53.109Z,-4.25
2019-01-25T07:44:53.084Z,-4.19
2019-01-25T07:45:53.023Z,-4.27
2019-01-25T07:46:53.003Z,-4.19
2019-01-25T07:47:53.000Z,-4.3
2019-01-25T07:48:52.986Z,-4.27
2019-01-25T07:49:52.933Z,-4.32
2019-01-25T07:50:52.911Z,-4.19
2019-01-25T07:51:52.918Z,-4.26
2019-01-25T07:52:52.635Z,-4.23
2019-01-25T07:53:53.105Z,-4.16
2019-01-25T07:54:52.340Z,-4.18
2019-01-25T07:55:52.828Z,-4.14
2019-01-25T07:56:52.796Z,-4.16
2019-01-25T07:57:52.758Z,-4.14
2019-01-25T07:58:52.840Z,-4.14
2019-01-25T07:59:53.648Z,-4.08
2019-01-25T08:00:52.732Z,-4.15
2019-01-25T08:01:52.766Z,-4.08
2019-01-25T08:02:52.512Z,-4.04
2019-01-25T08:03:52.403Z,-4.05
2019-01-25T08:04:52.418Z,-4
2019-01-25T08:05:52.606Z,-4
2019-01-25T08:06:52.674Z,-4.08
2019-01-25T08:07:52.542Z,-4.05
2019-01-25T08:08:52.323Z,-4.01
2019-01-25T08:09:52.514Z,-3.97
2019-01-25T08:10:52.754Z,-3.91
2019-01-25T08:11:52.573Z,-3.98
2019-01-25T08:12:52.535Z,-3.91
2019-01-25T08:13:52.416Z,-3.91
2019-01-25T08:14:52.404Z,-3.87
2019-01-25T08:15:52.228Z,-3.88
2019-01-25T08:16:52.352Z,-3.9
2019-01-25T08:17:52.373Z,-3.9
2019-01-25T08:18:52.303Z,-3.87
2019-01-25T08:19:52.036Z,-3.83
2019-01-25T08:20:52.058Z,-3.83
2019-01-25T08:21:52.260Z,-3.83
2019-01-25T08:22:52.278Z,-3.79
2019-01-25T08:23:52.310Z,-3.69
2019-01-25T08:24:52.243Z,-3.66
2019-01-25T08:25:52.292Z,-3.57
2019-01-25T08:26:52.201Z,-3.54
2019-01-25T08:27:51.909Z,-3.61
2019-01-25T08:28:52.140Z,-3.54
2019-01-25T08:29:52.139Z,-3.54
2019-01-25T08:30:52.154Z,-3.53
2019-01-25T08:31:52.743Z,-3.48
2019-01-25T08:32:51.964Z,-3.53
2019-01-25T08:33:51.775Z,-3.54
2019-01-25T08:34:51.971Z,-3.47
2019-01-25T08:35:51.974Z,-3.47
2019-01-25T08:36:51.940Z,-3.38
2019-01-25T08:37:51.945Z,-3.4
2019-01-25T08:38:51.884Z,-3.38
2019-01-25T08:39:51.888Z,-3.45
2019-01-25T08:40:51.897Z,-3.42
2019-01-25T08:41:51.830Z,-3.47
2019-01-25T08:42:51.894Z,-3.4
2019-01-25T08:43:52.054Z,-3.42
2019-01-25T08:44:51.753Z,-3.32
2019-01-25T08:45:51.978Z,-3.33
2019-01-25T08:46:51.773Z,-3.29
2019-01-25T08:47:51.774Z,-3.3
2019-01-25T08:48:51.745Z,-3.15
2019-01-25T08:49:57.749Z,-3.19
2019-01-25T08:50:51.761Z,-3.12
2019-01-25T08:51:51.692Z,-3.11
2019-01-25T08:52:51.892Z,-3.07
2019-01-25T08:53:51.383Z,-3
2019-01-25T08:54:51.559Z,-3.06
2019-01-25T08:55:51.596Z,-3.04
2019-01-25T08:56:51.333Z,-2.93
2019-01-25T08:57:51.268Z,-3.01
2019-01-25T08:58:51.533Z,-3.01
2019-01-25T08:59:51.465Z,-2.93
2019-01-25T09:00:51.888Z,-2.86
2019-01-25T09:01:51.395Z,-2.85
2019-01-25T09:02:51.382Z,-2.82
2019-01-25T09:03:51.354Z,-2.86
2019-01-25T09:04:51.338Z,-2.75
2019-01-25T09:05:51.311Z,-2.88
2019-01-25T09:06:51.039Z,-2.79
2019-01-25T09:07:51.270Z,-2.76
2019-01-25T09:08:51.002Z,-2.78
2019-01-25T09:09:51.230Z,-2.72
2019-01-25T09:10:51.211Z,-2.67
2019-01-25T09:11:51.194Z,-2.6
2019-01-25T09:12:51.168Z,-2.61
2019-01-25T09:13:51.145Z,-2.5
2019-01-25T09:14:51.125Z,-2.49
2019-01-25T09:15:51.120Z,-2.47
2019-01-25T09:16:51.090Z,-2.37
2019-01-25T09:17:51.079Z,-2.42
2019-01-25T09:18:51.040Z,-2.43
2019-01-25T09:19:51.024Z,-2.43
2019-01-25T09:20:52.749Z,-2.42
2019-01-25T09:21:50.986Z,-2.34
2019-01-25T09:22:50.960Z,-2.37
2019-01-25T09:23:50.942Z,-2.32
2019-01-25T09:24:50.921Z,-2.43
2019-01-25T09:25:50.655Z,-2.39
2019-01-25T09:26:50.632Z,-2.37
2019-01-25T09:27:50.614Z,-2.5
2019-01-25T09:28:50.839Z,-2.53
2019-01-25T09:29:50.818Z,-2.49
2019-01-25T09:30:50.797Z,-2.5
2019-01-25T09:31:50.786Z,-2.58
2019-01-25T09:32:50.510Z,-2.54
2019-01-25T09:33:50.739Z,-2.53
2019-01-25T09:34:50.713Z,-2.5
2019-01-25T09:35:50.698Z,-2.5
2019-01-25T09:36:50.701Z,-2.46
2019-01-25T09:37:50.681Z,-2.44
2019-01-25T09:38:50.637Z,-2.46
2019-01-25T09:39:50.670Z,-2.5
2019-01-25T09:40:50.589Z,-2.57
2019-01-25T09:41:50.580Z,-2.49
2019-01-25T09:42:50.548Z,-2.55
2019-01-25T09:43:50.280Z,-2.53
2019-01-25T09:44:50.516Z,-2.53
2019-01-25T09:45:50.489Z,-2.67
2019-01-25T09:46:50.479Z,-2.57
2019-01-25T09:47:50.456Z,-2.61
2019-01-25T09:48:50.429Z,-2.55
2019-01-25T09:49:50.410Z,-2.62
2019-01-25T09:50:57.470Z,-2.6
2019-01-25T09:51:50.365Z,-2.5
2019-01-25T09:52:50.347Z,-2.46
2019-01-25T09:53:50.326Z,-2.5
2019-01-25T09:54:50.060Z,-2.37
2019-01-25T09:55:50.285Z,-2.36
2019-01-25T09:56:50.268Z,-2.34
2019-01-25T09:57:50.245Z,-2.24
2019-01-25T09:58:50.222Z,-2.24
2019-01-25T09:59:50.197Z,-2.21
2019-01-25T10:00:50.182Z,-2.21
2019-01-25T10:01:49.916Z,-2.2
2019-01-25T10:02:50.138Z,-2.21
2019-01-25T10:03:50.120Z,-2.12
2019-01-25T10:04:50.102Z,-2.14
2019-01-25T10:05:50.085Z,-2.07
2019-01-25T10:06:49.812Z,-1.99
2019-01-25T10:07:50.054Z,-2.03
2019-01-25T10:08:50.015Z,-2.02
2019-01-25T10:09:49.999Z,-2.02
2019-01-25T10:10:49.985Z,-1.97
2019-01-25T10:11:49.962Z,-1.97
2019-01-25T10:12:49.685Z,-2.02
2019-01-25T10:13:49.917Z,-1.99
2019-01-25T10:14:49.650Z,-2.02
2019-01-25T10:15:49.879Z,-2
2019-01-25T10:16:49.611Z,-1.99
2019-01-25T10:17:49.835Z,-2.05
2019-01-25T10:18:49.819Z,-2.02
2019-01-25T10:19:49.799Z,-2.03
2019-01-25T10:20:49.526Z,-2.06
2019-01-25T10:21:49.759Z,-1.99
2019-01-25T10:22:49.739Z,-2.05
2019-01-25T10:23:49.465Z,-1.97
2019-01-25T10:24:49.699Z,-1.92
2019-01-25T10:25:49.670Z,-1.99
2019-01-25T10:26:49.404Z,-1.92
2019-01-25T10:27:49.762Z,-1.92
2019-01-25T10:28:49.617Z,-1.99
2019-01-25T10:29:49.604Z,-1.86
2019-01-25T10:30:49.590Z,-1.78
2019-01-25T10:31:49.578Z,-1.84
2019-01-25T10:32:49.550Z,-1.84
2019-01-25T10:33:49.594Z,-1.86
2019-01-25T10:34:49.578Z,-1.79
2019-01-25T10:35:49.554Z,-1.78
2019-01-25T10:36:49.534Z,-1.81
2019-01-25T10:37:49.518Z,-1.88
2019-01-25T10:38:49.503Z,-2.02
2019-01-25T10:39:49.478Z,-2.09
2019-01-25T10:40:49.534Z,-2.05
2019-01-25T10:41:49.431Z,-2.1
2019-01-25T10:42:57.748Z,-2.07
2019-01-25T10:43:50.562Z,-2.2
2019-01-25T10:44:49.371Z,-2.21
2019-01-25T10:45:49.355Z,-2.17
2019-01-25T10:46:49.328Z,-2.07
2019-01-25T10:47:49.326Z,-2.07
2019-01-25T10:48:49.293Z,-2.06
2019-01-25T10:49:49.273Z,-2.07
2019-01-25T10:50:49.250Z,-2.03
2019-01-25T10:51:49.229Z,-2
2019-01-25T10:52:49.212Z,-1.85
2019-01-25T10:53:49.196Z,-1.7
2019-01-25T10:54:49.171Z,-1.66
2019-01-25T10:55:49.158Z,-1.6
2019-01-25T10:56:49.143Z,-1.63
2019-01-25T10:57:49.108Z,-1.67
2019-01-25T10:58:49.146Z,-1.49
2019-01-25T10:59:49.066Z,-1.48
2019-01-25T11:00:49.049Z,-1.49
2019-01-25T11:01:48.787Z,-1.68
2019-01-25T11:02:49.008Z,-1.6
2019-01-25T11:03:48.969Z,-1.7
2019-01-25T11:04:48.720Z,-1.68
2019-01-25T11:05:48.706Z,-1.73
2019-01-25T11:06:48.934Z,-1.85
2019-01-25T11:07:48.912Z,-1.85
2019-01-25T11:08:48.657Z,-1.76
2019-01-25T11:09:48.870Z,-1.89
2019-01-25T11:10:48.850Z,-1.86
2019-01-25T11:11:48.830Z,-1.91
2019-01-25T11:12:48.565Z,-1.92
2019-01-25T11:13:48.843Z,-1.99
2019-01-25T11:14:48.769Z,-2
2019-01-25T11:15:48.505Z,-2.03
2019-01-25T11:16:48.732Z,-2.15
2019-01-25T11:17:48.631Z,-2.06
2019-01-25T11:18:48.449Z,-2.17
2019-01-25T11:19:48.461Z,-2.21
2019-01-25T11:20:48.655Z,-2.23
2019-01-25T11:21:48.386Z,-2.21
2019-01-25T11:22:48.356Z,-2.15
2019-01-25T11:23:48.594Z,-2.06
2019-01-25T11:24:48.574Z,-2.09
2019-01-25T11:25:48.556Z,-1.92
2019-01-25T11:26:48.528Z,-1.97
2019-01-25T11:27:48.558Z,-1.89
2019-01-25T11:28:48.533Z,-1.96
2019-01-25T11:29:48.468Z,-1.89
2019-01-25T11:30:48.453Z,-1.84
2019-01-25T11:31:48.426Z,-1.84
2019-01-25T11:32:48.409Z,-1.82
2019-01-25T11:33:48.391Z,-1.84
2019-01-25T11:34:48.378Z,-1.89
2019-01-25T11:35:48.352Z,-1.96
2019-01-25T11:36:48.327Z,-2.09
2019-01-25T11:37:48.313Z,-2.2
2019-01-25T11:38:48.292Z,-2.2
2019-01-25T11:39:51.687Z,-2.15
2019-01-25T11:40:48.252Z,-2.24
2019-01-25T11:41:48.239Z,-2.15
2019-01-25T11:42:48.209Z,-2.12
2019-01-25T11:43:48.189Z,-2.05
2019-01-25T11:44:48.172Z,-2.02
2019-01-25T11:45:48.146Z,-2.06
2019-01-25T11:46:48.130Z,-1.99
2019-01-25T11:47:48.109Z,-1.92
2019-01-25T11:48:48.089Z,-1.81
2019-01-25T11:49:48.066Z,-1.79
2019-01-25T11:50:48.055Z,-1.88
2019-01-25T11:51:48.067Z,-1.68
2019-01-25T11:52:48.009Z,-1.91
2019-01-25T11:53:47.988Z,-1.91
2019-01-25T11:54:47.969Z,-1.82
2019-01-25T11:55:47.970Z,-1.74
2019-01-25T11:56:47.679Z,-1.85
2019-01-25T11:57:47.917Z,-2
2019-01-25T11:58:47.884Z,-2.02
2019-01-25T11:59:47.869Z,-2.06
2019-01-25T12:00:47.850Z,-2.09
2019-01-25T12:01:47.831Z,-2.07
2019-01-25T12:02:47.813Z,-2.15
2019-01-25T12:03:47.787Z,-2.24
2019-01-25T12:04:47.764Z,-2.39
2019-01-25T12:05:47.754Z,-2.39
2019-01-25T12:06:47.729Z,-2.46
2019-01-25T12:07:47.707Z,-2.5
2019-01-25T12:08:47.441Z,-2.47
2019-01-25T12:09:47.670Z,-2.47
2019-01-25T12:10:47.404Z,-2.57
2019-01-25T12:11:47.377Z,-2.6
2019-01-25T12:12:47.362Z,-2.57
2019-01-25T12:13:47.343Z,-2.62
2019-01-25T12:14:47.564Z,-2.75
2019-01-25T12:15:47.550Z,-2.76
2019-01-25T12:16:47.524Z,-2.73
2019-01-25T12:17:47.509Z,-2.73
2019-01-25T12:18:47.489Z,-2.68
2019-01-25T12:19:47.470Z,-2.81
2019-01-25T12:20:47.446Z,-2.73
2019-01-25T12:21:47.424Z,-2.75
2019-01-25T12:22:47.404Z,-2.64
2019-01-25T12:23:47.388Z,-2.67
2019-01-25T12:24:47.370Z,-2.65
2019-01-25T12:25:47.168Z,-2.68
2019-01-25T12:26:47.480Z,-2.6
2019-01-25T12:27:47.300Z,-2.67
2019-01-25T12:28:47.030Z,-2.79
2019-01-25T12:29:47.260Z,-2.86
2019-01-25T12:30:47.254Z,-2.82
2019-01-25T12:31:46.972Z,-2.91
2019-01-25T12:32:47.195Z,-2.85
2019-01-25T12:33:47.187Z,-2.83
2019-01-25T12:34:46.957Z,-2.78
2019-01-25T12:35:47.137Z,-2.83
2019-01-25T12:36:47.117Z,-2.76
2019-01-25T12:37:47.106Z,-2.75
2019-01-25T12:38:47.076Z,-2.79
2019-01-25T12:39:46.803Z,-2.64
2019-01-25T12:40:47.583Z,-2.68
2019-01-25T12:41:47.022Z,-2.73
2019-01-25T12:42:46.988Z,-2.7
2019-01-25T12:43:46.978Z,-2.72
2019-01-25T12:44:46.947Z,-2.75
2019-01-25T12:45:50.156Z,-2.81
2019-01-25T12:46:46.916Z,-2.79
2019-01-25T12:47:46.890Z,-2.76
2019-01-25T12:48:46.869Z,-2.76
2019-01-25T12:49:46.661Z,-2.83
2019-01-25T12:50:51.339Z,-2.78
2019-01-25T12:51:46.886Z,-2.81
2019-01-25T12:52:46.784Z,-2.73
2019-01-25T12:53:46.520Z,-2.73